createdAt,value
2018-12-10T00:00:06.661Z,18.90
2018-12-10T00:00:38.703Z,18.90
2018-12-10T00:01:11.104Z,18.90
2018-12-10T00:01:43.300Z,18.90
2018-12-10T00:02:15.274Z,18.90
2018-12-10T00:02:47.565Z,18.90
2018-12-10T00:03:20.223Z,18.90
2018-12-10T00:03:52.711Z,18.90
2018-12-10T00:04:25.083Z,18.90
2018-12-10T00:04:57.265Z,18.90
2018-12-10T00:05:29.566Z,18.90
2018-12-10T00:06:02.096Z,18.90
2018-12-10T00:06:34.363Z,18.90
2018-12-10T00:07:06.713Z,18.80
2018-12-10T00:07:38.944Z,18.80
2018-12-10T00:08:11.063Z,18.80
2018-12-10T00:08:43.252Z,18.90
2018-12-10T00:09:15.385Z,18.90
2018-12-10T00:09:47.673Z,18.90
2018-12-10T00:10:20.274Z,18.90
2018-12-10T00:10:53.181Z,18.90
2018-12-10T00:11:25.292Z,18.90
2018-12-10T00:11:58.094Z,18.90
2018-12-10T00:12:30.310Z,18.90
2018-12-10T00:13:02.692Z,18.90
2018-12-10T00:13:35.281Z,18.90
2018-12-10T00:14:07.500Z,18.90
2018-12-10T00:14:39.933Z,18.90
2018-12-10T00:15:12.370Z,18.90
2018-12-10T00:15:44.553Z,18.90
2018-12-10T00:16:16.934Z,18.90
2018-12-10T00:16:49.497Z,18.90
2018-12-10T00:17:21.901Z,18.90
2018-12-10T00:17:53.822Z,18.90
2018-12-10T00:18:26.205Z,18.90
2018-12-10T00:18:59.520Z,18.90
2018-12-10T00:19:31.650Z,18.90
2018-12-10T00:20:03.762Z,18.90
2018-12-10T00:20:35.950Z,18.90
2018-12-10T00:21:08.333Z,18.90
2018-12-10T00:21:40.579Z,18.90
2018-12-10T00:22:13.015Z,18.90
2018-12-10T00:22:45.270Z,18.90
2018-12-10T00:23:17.310Z,18.90
2018-12-10T00:23:49.699Z,18.90
2018-12-10T00:24:22.110Z,18.90
2018-12-10T00:24:54.839Z,18.90
2018-12-10T00:25:27.680Z,18.90
2018-12-10T00:25:59.870Z,18.90
2018-12-10T00:26:32.577Z,18.90
2018-12-10T00:27:04.969Z,18.90
2018-12-10T00:27:37.257Z,18.90
2018-12-10T00:28:10.521Z,18.90
2018-12-10T00:28:42.807Z,18.90
2018-12-10T00:29:14.854Z,18.90
2018-12-10T00:29:47.243Z,18.90
2018-12-10T00:30:19.687Z,18.90
2018-12-10T00:30:52.150Z,18.90
2018-12-10T00:31:24.487Z,18.90
2018-12-10T00:31:56.728Z,18.90
2018-12-10T00:32:28.883Z,18.90
2018-12-10T00:33:01.150Z,18.90
2018-12-10T00:33:33.706Z,18.90
2018-12-10T00:34:05.949Z,18.90
2018-12-10T00:34:38.128Z,18.90
2018-12-10T00:35:10.396Z,18.90
2018-12-10T00:35:43.078Z,18.90
2018-12-10T00:36:15.439Z,18.90
2018-12-10T00:36:48.067Z,19.00
2018-12-10T00:37:20.477Z,19.00
2018-12-10T00:37:52.833Z,19.00
2018-12-10T00:38:25.037Z,19.00
2018-12-10T00:38:57.557Z,19.00
2018-12-10T00:39:29.969Z,19.00
2018-12-10T00:40:03.244Z,19.00
2018-12-10T00:40:35.375Z,19.00
2018-12-10T00:41:08.156Z,19.00
2018-12-10T00:41:41.545Z,19.00
2018-12-10T00:42:13.686Z,19.00
2018-12-10T00:42:46.129Z,19.00
2018-12-10T00:43:18.592Z,19.00
2018-12-10T00:43:50.717Z,19.00
2018-12-10T00:44:22.755Z,19.00
2018-12-10T00:44:55.408Z,19.00
2018-12-10T00:45:28.136Z,19.00
2018-12-10T00:46:00.726Z,19.00
2018-12-10T00:46:32.928Z,19.00
2018-12-10T00:47:05.453Z,19.00
2018-12-10T00:47:37.634Z,19.00
2018-12-10T00:48:09.933Z,19.00
2018-12-10T00:48:42.504Z,19.00
2018-12-10T00:49:14.745Z,19.00
2018-12-10T00:49:46.975Z,19.00
2018-12-10T00:50:19.543Z,19.00
2018-12-10T00:50:52.024Z,19.00
2018-12-10T00:51:24.332Z,19.00
2018-12-10T00:51:56.553Z,19.10
2018-12-10T00:52:29.024Z,19.00
2018-12-10T00:53:01.365Z,19.00
2018-12-10T00:53:33.744Z,19.00
2018-12-10T00:54:06.183Z,19.00
2018-12-10T00:54:38.724Z,19.00
2018-12-10T00:55:11.232Z,19.00
2018-12-10T00:55:43.465Z,19.00
2018-12-10T00:56:15.972Z,19.00
2018-12-10T00:56:48.422Z,19.00
2018-12-10T00:57:20.636Z,19.00
2018-12-10T00:57:52.946Z,19.00
2018-12-10T00:58:26.142Z,19.00
2018-12-10T00:58:58.639Z,19.00
2018-12-10T00:59:30.731Z,19.00
2018-12-10T01:00:03.222Z,19.00
2018-12-10T01:00:35.337Z,19.00
2018-12-10T01:01:07.538Z,19.00
2018-12-10T01:01:41.285Z,19.10
2018-12-10T01:02:14.543Z,19.10
2018-12-10T01:02:46.597Z,19.10
2018-12-10T01:03:19.061Z,19.10
2018-12-10T01:03:51.218Z,19.10
2018-12-10T01:04:23.720Z,19.10
2018-12-10T01:04:56.898Z,19.10
2018-12-10T01:05:29.341Z,19.10
2018-12-10T01:06:01.508Z,19.10
2018-12-10T01:06:33.817Z,19.10
2018-12-10T01:07:05.988Z,19.10
2018-12-10T01:07:38.418Z,19.10
2018-12-10T01:08:10.697Z,19.10
2018-12-10T01:08:43.252Z,19.10
2018-12-10T01:09:15.639Z,19.10
2018-12-10T01:09:47.910Z,19.10
2018-12-10T01:10:20.280Z,19.10
2018-12-10T01:10:52.529Z,19.10
2018-12-10T01:11:24.813Z,19.10
2018-12-10T01:11:57.169Z,19.10
2018-12-10T01:12:29.377Z,19.10
2018-12-10T01:13:01.531Z,19.10
2018-12-10T01:13:33.941Z,19.10
2018-12-10T01:14:06.232Z,19.10
2018-12-10T01:14:38.425Z,19.10
2018-12-10T01:15:10.641Z,19.10
2018-12-10T01:15:42.805Z,19.10
2018-12-10T01:16:15.104Z,19.10
2018-12-10T01:16:47.423Z,19.10
2018-12-10T01:17:19.734Z,19.10
2018-12-10T01:17:52.226Z,19.10
2018-12-10T01:18:24.406Z,19.10
2018-12-10T01:18:57.355Z,19.10
2018-12-10T01:19:29.855Z,19.10
2018-12-10T01:20:02.196Z,19.10
2018-12-10T01:20:34.642Z,19.10
2018-12-10T01:21:07.137Z,19.10
2018-12-10T01:21:39.446Z,19.10
2018-12-10T01:22:12.065Z,19.10
2018-12-10T01:22:44.370Z,19.10
2018-12-10T01:23:16.847Z,19.10
2018-12-10T01:23:49.682Z,19.10
2018-12-10T01:24:21.980Z,19.10
2018-12-10T01:24:54.047Z,19.10
2018-12-10T01:25:26.169Z,19.10
2018-12-10T01:25:58.378Z,19.10
2018-12-10T01:26:30.517Z,19.10
2018-12-10T01:27:03.279Z,19.10
2018-12-10T01:27:35.758Z,19.10
2018-12-10T01:28:09.028Z,19.10
2018-12-10T01:28:41.380Z,19.10
2018-12-10T01:29:13.508Z,19.10
2018-12-10T01:29:45.921Z,19.10
2018-12-10T01:30:18.154Z,19.10
2018-12-10T01:30:50.695Z,19.10
2018-12-10T01:31:23.150Z,19.10
2018-12-10T01:31:55.473Z,19.10
2018-12-10T01:32:27.732Z,19.00
2018-12-10T01:33:00.160Z,19.10
2018-12-10T01:33:32.711Z,19.10
2018-12-10T01:34:04.974Z,19.10
2018-12-10T01:34:37.495Z,19.10
2018-12-10T01:35:09.824Z,19.10
2018-12-10T01:35:42.383Z,19.10
2018-12-10T01:36:14.894Z,19.10
2018-12-10T01:36:47.602Z,19.10
2018-12-10T01:37:20.088Z,19.10
2018-12-10T01:37:52.541Z,19.10
2018-12-10T01:38:25.151Z,19.00
2018-12-10T01:38:57.653Z,19.00
2018-12-10T01:39:29.857Z,19.10
2018-12-10T01:40:02.525Z,19.10
2018-12-10T01:40:34.647Z,19.00
2018-12-10T01:41:06.858Z,19.10
2018-12-10T01:41:39.217Z,19.10
2018-12-10T01:42:11.745Z,19.10
2018-12-10T01:42:44.149Z,19.10
2018-12-10T01:43:16.354Z,19.10
2018-12-10T01:43:48.417Z,19.10
2018-12-10T01:44:20.577Z,19.10
2018-12-10T01:44:52.728Z,19.10
2018-12-10T01:45:24.870Z,19.10
2018-12-10T01:45:56.996Z,19.10
2018-12-10T01:46:29.469Z,19.10
2018-12-10T01:47:01.956Z,19.10
2018-12-10T01:47:34.388Z,19.10
2018-12-10T01:48:06.430Z,19.10
2018-12-10T01:48:38.847Z,19.10
2018-12-10T01:49:11.000Z,19.10
2018-12-10T01:49:43.480Z,19.10
2018-12-10T01:50:15.917Z,19.10
2018-12-10T01:50:48.208Z,19.10
2018-12-10T01:51:20.446Z,19.00
2018-12-10T01:51:53.017Z,19.00
2018-12-10T01:52:25.348Z,19.00
2018-12-10T01:52:57.715Z,19.10
2018-12-10T01:53:29.801Z,19.00
2018-12-10T01:54:02.441Z,19.10
2018-12-10T01:54:36.101Z,19.00
2018-12-10T01:55:08.219Z,19.10
2018-12-10T01:55:40.379Z,19.10
2018-12-10T01:56:12.829Z,19.00
2018-12-10T01:56:45.069Z,19.00
2018-12-10T01:57:18.138Z,19.00
2018-12-10T01:57:50.681Z,19.00
2018-12-10T01:58:22.842Z,19.10
2018-12-10T01:58:55.542Z,19.10
2018-12-10T01:59:28.151Z,19.10
2018-12-10T02:00:00.432Z,19.10
2018-12-10T02:00:32.792Z,19.10
2018-12-10T02:01:05.126Z,19.10
2018-12-10T02:01:37.613Z,19.10
2018-12-10T02:02:09.754Z,19.00
2018-12-10T02:02:42.145Z,19.10
2018-12-10T02:03:14.833Z,19.00
2018-12-10T02:03:47.555Z,19.10
2018-12-10T02:04:20.113Z,19.10
2018-12-10T02:04:52.602Z,19.10
2018-12-10T02:05:25.873Z,19.00
2018-12-10T02:05:58.443Z,19.10
2018-12-10T02:06:30.742Z,19.10
2018-12-10T02:07:03.025Z,19.10
2018-12-10T02:07:35.313Z,19.10
2018-12-10T02:08:07.763Z,19.10
2018-12-10T02:08:40.183Z,19.10
2018-12-10T02:09:12.315Z,19.10
2018-12-10T02:09:44.384Z,19.00
2018-12-10T02:10:16.675Z,19.00
2018-12-10T02:10:48.828Z,19.00
2018-12-10T02:11:21.278Z,19.00
2018-12-10T02:11:53.684Z,19.00
2018-12-10T02:12:26.486Z,19.10
2018-12-10T02:12:58.723Z,19.10
2018-12-10T02:13:31.174Z,19.00
2018-12-10T02:14:03.090Z,19.00
2018-12-10T02:14:35.012Z,19.00
2018-12-10T02:15:06.923Z,19.00
2018-12-10T02:15:39.941Z,19.00
2018-12-10T02:16:12.477Z,19.00
2018-12-10T02:16:44.351Z,19.00
2018-12-10T02:17:16.282Z,19.00
2018-12-10T02:17:48.663Z,19.00
2018-12-10T02:18:21.144Z,19.00
2018-12-10T02:18:52.999Z,19.10
2018-12-10T02:19:25.487Z,19.10
2018-12-10T02:19:57.789Z,19.10
2018-12-10T02:20:31.497Z,19.10
2018-12-10T02:21:03.761Z,19.10
2018-12-10T02:21:36.318Z,19.10
2018-12-10T02:22:08.471Z,19.10
2018-12-10T02:22:40.847Z,19.00
2018-12-10T02:23:12.999Z,19.10
2018-12-10T02:23:45.566Z,19.10
2018-12-10T02:24:17.796Z,19.00
2018-12-10T02:24:50.371Z,19.00
2018-12-10T02:25:23.037Z,19.00
2018-12-10T02:25:56.518Z,19.00
2018-12-10T02:26:28.848Z,19.10
2018-12-10T02:27:01.177Z,19.00
2018-12-10T02:27:33.718Z,19.00
2018-12-10T02:28:06.074Z,19.00
2018-12-10T02:28:38.761Z,19.10
2018-12-10T02:29:10.969Z,19.00
2018-12-10T02:29:43.469Z,19.10
2018-12-10T02:30:15.833Z,19.10
2018-12-10T02:30:47.988Z,19.10
2018-12-10T02:31:20.560Z,19.00
2018-12-10T02:31:52.878Z,19.10
2018-12-10T02:32:25.195Z,19.10
2018-12-10T02:32:58.329Z,19.10
2018-12-10T02:33:30.590Z,19.00
2018-12-10T02:34:02.919Z,19.00
2018-12-10T02:34:35.218Z,19.10
2018-12-10T02:35:07.673Z,19.10
2018-12-10T02:35:40.018Z,19.10
2018-12-10T02:36:12.443Z,19.10
2018-12-10T02:36:46.242Z,19.10
2018-12-10T02:37:18.864Z,19.10
2018-12-10T02:37:51.240Z,19.10
2018-12-10T02:38:23.699Z,19.10
2018-12-10T02:38:56.170Z,19.10
2018-12-10T02:39:28.613Z,19.10
2018-12-10T02:40:01.012Z,19.10
2018-12-10T02:40:34.792Z,19.10
2018-12-10T02:41:08.098Z,19.10
2018-12-10T02:41:40.672Z,19.10
2018-12-10T02:42:13.307Z,19.10
2018-12-10T02:42:46.222Z,19.10
2018-12-10T02:43:18.743Z,19.10
2018-12-10T02:44:35.741Z,19.20
2018-12-10T02:45:07.862Z,19.20
2018-12-10T02:45:40.046Z,19.10
2018-12-10T02:46:12.172Z,19.10
2018-12-10T02:46:44.375Z,19.20
2018-12-10T02:47:16.533Z,19.20
2018-12-10T02:47:48.853Z,19.10
2018-12-10T02:48:20.874Z,19.10
2018-12-10T02:48:52.952Z,19.10
2018-12-10T02:49:25.090Z,19.10
2018-12-10T02:49:57.783Z,19.10
2018-12-10T02:50:29.957Z,19.10
2018-12-10T02:51:01.902Z,19.10
2018-12-10T02:51:34.743Z,19.10
2018-12-10T02:52:06.800Z,19.10
2018-12-10T02:52:39.065Z,19.10
2018-12-10T02:53:11.357Z,19.10
2018-12-10T02:53:43.365Z,19.10
2018-12-10T02:54:15.584Z,19.10
2018-12-10T02:54:47.683Z,19.10
2018-12-10T02:55:19.827Z,19.10
2018-12-10T02:55:52.478Z,19.10
2018-12-10T02:56:24.584Z,19.10
2018-12-10T02:56:56.794Z,19.10
2018-12-10T02:57:28.867Z,19.10
2018-12-10T02:58:00.938Z,19.10
2018-12-10T02:58:33.099Z,19.10
2018-12-10T02:59:05.215Z,19.10
2018-12-10T02:59:37.439Z,19.10
2018-12-10T03:00:09.557Z,19.10
2018-12-10T03:00:41.567Z,19.10
2018-12-10T03:01:13.636Z,19.10
2018-12-10T03:01:46.413Z,19.10
2018-12-10T03:02:18.603Z,19.10
2018-12-10T03:02:50.638Z,19.10
2018-12-10T03:03:22.677Z,19.10
2018-12-10T03:03:54.794Z,19.10
2018-12-10T03:04:26.903Z,19.00
2018-12-10T03:04:59.026Z,19.00
2018-12-10T03:05:31.176Z,19.10
2018-12-10T03:06:03.339Z,19.10
2018-12-10T03:06:35.453Z,19.10
2018-12-10T03:07:07.525Z,19.10
2018-12-10T03:07:39.712Z,19.10
2018-12-10T03:08:11.886Z,19.10
2018-12-10T03:08:43.935Z,19.10
2018-12-10T03:09:16.176Z,19.00
2018-12-10T03:09:48.369Z,19.10
2018-12-10T03:10:20.537Z,19.10
2018-12-10T03:10:52.512Z,19.10
2018-12-10T03:11:24.667Z,19.10
2018-12-10T03:11:56.735Z,19.10
2018-12-10T03:12:28.877Z,19.10
2018-12-10T03:13:00.975Z,19.10
2018-12-10T03:13:33.135Z,19.10
2018-12-10T03:14:05.206Z,19.10
2018-12-10T03:14:37.410Z,19.10
2018-12-10T03:15:09.434Z,19.10
2018-12-10T03:15:41.698Z,19.10
2018-12-10T03:16:13.712Z,19.10
2018-12-10T03:16:45.736Z,19.10
2018-12-10T03:17:17.826Z,19.10
2018-12-10T03:17:50.417Z,19.10
2018-12-10T03:18:22.486Z,19.10
2018-12-10T03:18:54.613Z,19.10
2018-12-10T03:19:26.809Z,19.10
2018-12-10T03:19:58.778Z,19.10
2018-12-10T03:20:31.029Z,19.10
2018-12-10T03:21:02.969Z,19.10
2018-12-10T03:21:35.106Z,19.10
2018-12-10T03:22:07.348Z,19.10
2018-12-10T03:22:39.454Z,19.10
2018-12-10T03:23:11.552Z,19.10
2018-12-10T03:23:43.680Z,19.10
2018-12-10T03:24:16.014Z,19.10
2018-12-10T03:24:48.309Z,19.10
2018-12-10T03:25:20.448Z,19.10
2018-12-10T03:25:52.611Z,19.10
2018-12-10T03:26:24.580Z,19.10
2018-12-10T03:26:56.648Z,19.10
2018-12-10T03:27:29.038Z,19.10
2018-12-10T03:28:01.365Z,19.10
2018-12-10T03:28:33.587Z,19.10
2018-12-10T03:29:05.637Z,19.10
2018-12-10T03:29:37.677Z,19.10
2018-12-10T03:30:09.943Z,19.10
2018-12-10T03:30:42.225Z,19.10
2018-12-10T03:31:14.389Z,19.10
2018-12-10T03:31:46.423Z,19.10
2018-12-10T03:32:18.478Z,19.10
2018-12-10T03:32:50.643Z,19.00
2018-12-10T03:33:22.721Z,19.10
2018-12-10T03:33:54.757Z,19.00
2018-12-10T03:34:26.809Z,19.10
2018-12-10T03:34:58.759Z,19.00
2018-12-10T03:35:30.874Z,19.10
2018-12-10T03:36:03.023Z,19.00
2018-12-10T03:36:35.077Z,19.00
2018-12-10T03:37:07.180Z,19.00
2018-12-10T03:37:39.287Z,19.00
2018-12-10T03:38:11.539Z,19.00
2018-12-10T03:38:43.779Z,19.00
2018-12-10T03:39:15.830Z,19.00
2018-12-10T03:39:47.928Z,19.00
2018-12-10T03:40:20.042Z,19.00
2018-12-10T03:40:52.047Z,19.00
2018-12-10T03:41:24.156Z,19.00
2018-12-10T03:41:56.212Z,19.00
2018-12-10T03:42:28.415Z,19.00
2018-12-10T03:43:00.438Z,19.00
2018-12-10T03:43:32.709Z,19.00
2018-12-10T03:44:04.838Z,19.00
2018-12-10T03:44:36.912Z,19.00
2018-12-10T03:45:08.819Z,19.00
2018-12-10T03:45:40.889Z,18.90
2018-12-10T03:46:12.909Z,18.90
2018-12-10T03:46:45.030Z,18.90
2018-12-10T03:47:17.129Z,19.00
2018-12-10T03:47:49.192Z,18.90
2018-12-10T03:48:21.353Z,19.00
2018-12-10T03:48:53.503Z,18.90
2018-12-10T03:49:25.500Z,19.00
2018-12-10T03:49:57.548Z,18.90
2018-12-10T03:50:29.529Z,18.90
2018-12-10T03:51:01.907Z,18.90
2018-12-10T03:51:34.030Z,18.90
2018-12-10T03:52:06.090Z,18.90
2018-12-10T03:52:38.144Z,18.90
2018-12-10T03:53:10.089Z,18.90
2018-12-10T03:53:42.230Z,18.90
2018-12-10T03:54:14.591Z,18.90
2018-12-10T03:54:46.784Z,18.90
2018-12-10T03:55:19.140Z,18.90
2018-12-10T03:55:51.200Z,18.90
2018-12-10T03:56:23.236Z,18.90
2018-12-10T03:56:55.380Z,18.90
2018-12-10T03:57:27.511Z,18.90
2018-12-10T03:57:59.943Z,18.90
2018-12-10T03:58:32.190Z,18.90
2018-12-10T03:59:04.176Z,18.90
2018-12-10T03:59:36.342Z,18.90
2018-12-10T04:00:08.431Z,18.90
2018-12-10T04:00:40.561Z,18.90
2018-12-10T04:01:12.640Z,18.90
2018-12-10T04:01:44.882Z,18.90
2018-12-10T04:02:17.023Z,18.90
2018-12-10T04:02:49.334Z,18.90
2018-12-10T04:03:21.595Z,18.90
2018-12-10T04:03:53.652Z,18.80
2018-12-10T04:04:26.277Z,18.90
2018-12-10T04:04:58.274Z,18.90
2018-12-10T04:05:30.444Z,18.80
2018-12-10T04:06:02.481Z,18.90
2018-12-10T04:06:34.463Z,18.90
2018-12-10T04:07:06.629Z,18.90
2018-12-10T04:07:38.762Z,18.90
2018-12-10T04:08:10.811Z,18.90
2018-12-10T04:08:42.962Z,18.90
2018-12-10T04:09:15.921Z,18.90
2018-12-10T04:09:48.171Z,18.90
2018-12-10T04:10:20.317Z,18.80
2018-12-10T04:10:52.506Z,18.80
2018-12-10T04:11:24.924Z,18.80
2018-12-10T04:11:57.041Z,18.80
2018-12-10T04:12:29.197Z,18.80
2018-12-10T04:13:01.246Z,18.80
2018-12-10T04:13:33.424Z,18.80
2018-12-10T04:14:05.563Z,18.80
2018-12-10T04:14:37.546Z,18.80
2018-12-10T04:15:09.615Z,18.80
2018-12-10T04:15:41.715Z,18.80
2018-12-10T04:16:13.833Z,18.80
2018-12-10T04:16:46.112Z,18.80
2018-12-10T04:17:18.313Z,18.80
2018-12-10T04:17:50.400Z,18.80
2018-12-10T04:18:22.652Z,18.80
2018-12-10T04:18:54.900Z,18.80
2018-12-10T04:19:26.991Z,18.80
2018-12-10T04:19:59.073Z,18.80
2018-12-10T04:20:31.051Z,18.80
2018-12-10T04:21:03.276Z,18.80
2018-12-10T04:21:35.447Z,18.80
2018-12-10T04:22:07.517Z,18.80
2018-12-10T04:22:39.667Z,18.80
2018-12-10T04:23:12.038Z,18.80
2018-12-10T04:23:43.996Z,18.80
2018-12-10T04:24:16.163Z,18.80
2018-12-10T04:24:48.182Z,18.80
2018-12-10T04:25:20.267Z,18.80
2018-12-10T04:25:52.366Z,18.80
2018-12-10T04:26:24.463Z,18.90
2018-12-10T04:26:56.683Z,18.80
2018-12-10T04:27:28.744Z,18.80
2018-12-10T04:28:00.994Z,18.80
2018-12-10T04:28:33.034Z,18.80
2018-12-10T04:29:05.103Z,18.80
2018-12-10T04:29:37.279Z,18.80
2018-12-10T04:30:09.424Z,18.80
2018-12-10T04:30:41.343Z,18.80
2018-12-10T04:31:13.353Z,18.80
2018-12-10T04:31:45.505Z,18.90
2018-12-10T04:32:17.614Z,18.90
2018-12-10T04:32:49.665Z,18.90
2018-12-10T04:33:21.619Z,18.90
2018-12-10T04:33:53.935Z,18.90
2018-12-10T04:34:26.058Z,18.90
2018-12-10T04:34:58.151Z,18.80
2018-12-10T04:35:30.066Z,18.90
2018-12-10T04:36:02.226Z,18.90
2018-12-10T04:36:34.443Z,18.90
2018-12-10T04:37:06.425Z,18.80
2018-12-10T04:37:38.696Z,18.90
2018-12-10T04:38:10.855Z,18.80
2018-12-10T04:38:42.942Z,18.80
2018-12-10T04:39:15.057Z,18.80
2018-12-10T04:39:47.122Z,18.90
2018-12-10T04:40:19.152Z,18.80
2018-12-10T04:40:51.150Z,18.80
2018-12-10T04:41:23.393Z,18.90
2018-12-10T04:41:55.480Z,18.80
2018-12-10T04:42:28.191Z,18.80
2018-12-10T04:43:00.634Z,18.80
2018-12-10T04:43:32.832Z,18.90
2018-12-10T04:44:04.798Z,18.80
2018-12-10T04:44:36.862Z,18.80
2018-12-10T04:45:08.874Z,18.80
2018-12-10T04:45:40.934Z,18.80
2018-12-10T04:46:13.125Z,18.80
2018-12-10T04:46:45.385Z,18.80
2018-12-10T04:47:17.468Z,18.80
2018-12-10T04:47:49.541Z,18.90
2018-12-10T04:48:21.452Z,18.80
2018-12-10T04:48:53.648Z,18.80
2018-12-10T04:49:25.748Z,18.80
2018-12-10T04:49:57.968Z,18.80
2018-12-10T04:50:30.043Z,18.80
2018-12-10T04:51:02.172Z,18.80
2018-12-10T04:51:34.555Z,18.80
2018-12-10T04:52:06.879Z,18.80
2018-12-10T04:52:39.072Z,18.80
2018-12-10T04:53:11.232Z,18.80
2018-12-10T04:53:43.240Z,18.80
2018-12-10T04:54:15.287Z,18.90
2018-12-10T04:54:47.378Z,18.90
2018-12-10T04:55:19.452Z,18.90
2018-12-10T04:55:51.550Z,18.90
2018-12-10T04:56:23.496Z,18.90
2018-12-10T04:56:55.506Z,18.90
2018-12-10T04:57:27.605Z,18.90
2018-12-10T04:57:59.652Z,18.90
2018-12-10T04:58:31.607Z,18.90
2018-12-10T04:59:03.786Z,18.90
2018-12-10T04:59:35.906Z,18.90
2018-12-10T05:00:08.514Z,18.80
2018-12-10T05:00:40.960Z,18.90
2018-12-10T05:01:13.196Z,18.90
2018-12-10T05:01:45.183Z,18.90
2018-12-10T05:02:17.216Z,18.90
2018-12-10T05:02:49.405Z,18.90
2018-12-10T05:03:21.416Z,18.90
2018-12-10T05:03:53.494Z,18.90
2018-12-10T05:04:25.453Z,18.80
2018-12-10T05:04:57.584Z,18.80
2018-12-10T05:05:29.602Z,18.80
2018-12-10T05:06:01.664Z,18.80
2018-12-10T05:06:33.860Z,18.80
2018-12-10T05:07:05.896Z,18.70
2018-12-10T05:07:38.014Z,18.70
2018-12-10T05:08:10.053Z,18.70
2018-12-10T05:08:42.128Z,18.70
2018-12-10T05:09:14.273Z,18.60
2018-12-10T05:09:46.394Z,18.60
2018-12-10T05:10:18.400Z,18.60
2018-12-10T05:10:50.493Z,18.60
2018-12-10T05:11:22.602Z,18.60
2018-12-10T05:11:54.903Z,18.50
2018-12-10T05:12:26.902Z,18.50
2018-12-10T05:12:59.042Z,18.50
2018-12-10T05:13:31.131Z,18.50
2018-12-10T05:14:03.305Z,18.50
2018-12-10T05:14:35.541Z,18.50
2018-12-10T05:15:07.752Z,18.50
2018-12-10T05:15:39.833Z,18.50
2018-12-10T05:16:12.051Z,18.40
2018-12-10T05:16:44.222Z,18.40
2018-12-10T05:17:16.404Z,18.40
2018-12-10T05:17:48.542Z,18.40
2018-12-10T05:18:20.840Z,18.40
2018-12-10T05:18:52.892Z,18.40
2018-12-10T05:19:25.139Z,18.40
2018-12-10T05:19:57.151Z,18.40
2018-12-10T05:20:29.224Z,18.40
2018-12-10T05:21:01.411Z,18.40
2018-12-10T05:21:33.527Z,18.40
2018-12-10T05:22:06.070Z,18.40
2018-12-10T05:22:38.122Z,18.40
2018-12-10T05:23:10.274Z,18.30
2018-12-10T05:23:42.201Z,18.40
2018-12-10T05:24:14.371Z,18.40
2018-12-10T05:24:46.424Z,18.40
2018-12-10T05:25:18.603Z,18.40
2018-12-10T05:25:50.580Z,18.30
2018-12-10T05:26:22.699Z,18.30
2018-12-10T05:26:54.787Z,18.30
2018-12-10T05:27:26.846Z,18.30
2018-12-10T05:27:58.849Z,18.30
2018-12-10T05:28:30.760Z,18.30
2018-12-10T05:29:02.959Z,18.30
2018-12-10T05:29:35.320Z,18.30
2018-12-10T05:30:07.413Z,18.30
2018-12-10T05:30:39.443Z,18.30
2018-12-10T05:31:11.570Z,18.30
2018-12-10T05:31:43.728Z,18.30
2018-12-10T05:32:15.919Z,18.30
2018-12-10T05:32:47.931Z,18.30
2018-12-10T05:33:20.090Z,18.30
2018-12-10T05:33:52.180Z,18.30
2018-12-10T05:34:24.400Z,18.30
2018-12-10T05:34:56.428Z,18.30
2018-12-10T05:35:28.457Z,18.20
2018-12-10T05:36:00.359Z,18.30
2018-12-10T05:36:32.632Z,18.20
2018-12-10T05:37:04.620Z,18.20
2018-12-10T05:37:36.722Z,18.20
2018-12-10T05:38:08.880Z,18.20
2018-12-10T05:38:41.037Z,18.20
2018-12-10T05:39:13.028Z,18.20
2018-12-10T05:39:45.155Z,18.20
2018-12-10T05:40:17.224Z,18.20
2018-12-10T05:40:49.259Z,18.20
2018-12-10T05:41:21.451Z,18.20
2018-12-10T05:41:53.556Z,18.20
2018-12-10T05:42:25.569Z,18.10
2018-12-10T05:42:57.717Z,18.20
2018-12-10T05:43:29.819Z,18.10
2018-12-10T05:44:01.887Z,18.10
2018-12-10T05:44:33.960Z,18.20
2018-12-10T05:45:06.041Z,18.10
2018-12-10T05:45:38.254Z,18.10
2018-12-10T05:46:10.258Z,18.10
2018-12-10T05:46:42.370Z,18.10
2018-12-10T05:47:14.388Z,18.10
2018-12-10T05:47:46.599Z,18.10
2018-12-10T05:48:18.740Z,18.10
2018-12-10T05:48:51.119Z,18.10
2018-12-10T05:49:23.089Z,18.10
2018-12-10T05:49:55.232Z,18.10
2018-12-10T05:50:27.369Z,18.10
2018-12-10T05:50:59.453Z,18.10
2018-12-10T05:51:31.518Z,18.10
2018-12-10T05:52:03.734Z,18.10
2018-12-10T05:52:36.420Z,18.10
2018-12-10T05:53:08.480Z,18.10
2018-12-10T05:53:40.602Z,18.10
2018-12-10T05:54:12.819Z,18.10
2018-12-10T05:54:45.041Z,18.10
2018-12-10T05:55:17.289Z,18.10
2018-12-10T05:55:49.395Z,18.10
2018-12-10T05:56:21.392Z,18.10
2018-12-10T05:56:53.706Z,18.10
2018-12-10T05:57:25.751Z,18.10
2018-12-10T05:57:57.772Z,18.10
2018-12-10T05:58:30.146Z,18.10
2018-12-10T05:59:02.190Z,18.10
2018-12-10T05:59:34.190Z,18.10
2018-12-10T06:00:06.152Z,18.10
2018-12-10T06:00:38.330Z,18.10
2018-12-10T06:01:10.491Z,18.10
2018-12-10T06:01:42.593Z,18.10
2018-12-10T06:02:14.691Z,18.10
2018-12-10T06:02:46.951Z,18.10
2018-12-10T06:03:20.054Z,18.10
2018-12-10T06:03:53.402Z,18.10
2018-12-10T06:04:25.562Z,18.10
2018-12-10T06:04:57.841Z,18.10
2018-12-10T06:05:29.882Z,18.10
2018-12-10T06:06:01.864Z,18.20
2018-12-10T06:06:33.945Z,18.10
2018-12-10T06:07:05.912Z,18.10
2018-12-10T06:07:37.943Z,18.10
2018-12-10T06:08:09.995Z,18.10
2018-12-10T06:08:41.994Z,18.10
2018-12-10T06:09:14.033Z,18.10
2018-12-10T06:09:46.082Z,18.10
2018-12-10T06:10:18.194Z,18.10
2018-12-10T06:10:50.483Z,18.10
2018-12-10T06:11:22.693Z,18.10
2018-12-10T06:11:54.875Z,18.10
2018-12-10T06:12:27.002Z,18.10
2018-12-10T06:12:59.133Z,18.10
2018-12-10T06:13:31.296Z,18.10
2018-12-10T06:14:03.435Z,18.10
2018-12-10T06:14:35.523Z,18.20
2018-12-10T06:15:07.619Z,18.20
2018-12-10T06:15:39.715Z,18.10
2018-12-10T06:16:11.753Z,18.20
2018-12-10T06:16:43.802Z,18.10
2018-12-10T06:17:15.982Z,18.10
2018-12-10T06:17:48.084Z,18.10
2018-12-10T06:18:20.279Z,18.10
2018-12-10T06:18:52.318Z,18.10
2018-12-10T06:19:24.436Z,18.10
2018-12-10T06:19:56.584Z,18.10
2018-12-10T06:20:28.789Z,18.10
2018-12-10T06:21:00.691Z,18.10
2018-12-10T06:21:32.747Z,18.10
2018-12-10T06:22:04.795Z,18.10
2018-12-10T06:22:36.813Z,18.10
2018-12-10T06:23:08.844Z,18.10
2018-12-10T06:23:41.090Z,18.10
2018-12-10T06:24:13.314Z,18.10
2018-12-10T06:24:45.654Z,18.10
2018-12-10T06:25:17.699Z,18.10
2018-12-10T06:25:49.658Z,18.10
2018-12-10T06:26:21.709Z,18.10
2018-12-10T06:26:53.699Z,18.10
2018-12-10T06:27:25.718Z,18.10
2018-12-10T06:27:57.766Z,18.10
2018-12-10T06:28:29.755Z,18.10
2018-12-10T06:29:01.837Z,18.10
2018-12-10T06:29:33.826Z,18.10
2018-12-10T06:30:05.847Z,18.10
2018-12-10T06:30:37.895Z,18.10
2018-12-10T06:31:09.986Z,18.00
2018-12-10T06:31:41.971Z,18.00
2018-12-10T06:32:14.127Z,18.10
2018-12-10T06:32:46.155Z,18.10
2018-12-10T06:33:18.224Z,18.00
2018-12-10T06:33:50.335Z,18.10
2018-12-10T06:34:22.447Z,18.10
2018-12-10T06:34:54.565Z,18.00
2018-12-10T06:35:26.880Z,18.10
2018-12-10T06:35:58.940Z,18.10
2018-12-10T06:36:31.055Z,18.10
2018-12-10T06:37:03.136Z,18.00
2018-12-10T06:37:37.755Z,18.00
2018-12-10T06:38:09.578Z,18.00
2018-12-10T06:38:41.627Z,18.10
2018-12-10T06:39:13.756Z,18.00
2018-12-10T06:39:45.827Z,18.00
2018-12-10T06:40:17.906Z,18.00
2018-12-10T06:40:49.918Z,18.00
2018-12-10T06:41:22.281Z,18.00
2018-12-10T06:41:54.600Z,18.00
2018-12-10T06:42:26.900Z,18.10
2018-12-10T06:42:59.582Z,18.00
2018-12-10T06:43:31.700Z,18.10
2018-12-10T06:44:03.747Z,18.10
2018-12-10T06:44:35.918Z,18.00
2018-12-10T06:45:08.307Z,18.00
2018-12-10T06:45:40.306Z,18.10
2018-12-10T06:46:12.560Z,18.00
2018-12-10T06:46:44.727Z,18.00
2018-12-10T06:47:16.757Z,18.00
2018-12-10T06:47:48.857Z,18.00
2018-12-10T06:48:20.900Z,18.00
2018-12-10T06:48:53.019Z,18.00
2018-12-10T06:49:25.029Z,18.00
2018-12-10T06:49:57.078Z,18.00
2018-12-10T06:50:29.093Z,18.00
2018-12-10T06:51:01.116Z,18.00
2018-12-10T06:51:33.031Z,18.00
2018-12-10T06:52:05.091Z,18.00
2018-12-10T06:52:37.388Z,18.00
2018-12-10T06:53:09.458Z,18.00
2018-12-10T06:53:41.671Z,18.00
2018-12-10T06:54:13.922Z,18.00
2018-12-10T06:54:46.098Z,18.00
2018-12-10T06:55:18.264Z,18.00
2018-12-10T06:55:50.326Z,18.00